createdAt,value
2023-04-20T00:00:03.885Z,86.1
2023-04-20T00:01:02.996Z,86.2
2023-04-20T00:02:03.233Z,86.1
2023-04-20T00:03:04.371Z,86.2
2023-04-20T00:04:03.087Z,86
2023-04-20T00:05:03.762Z,85.9
2023-04-20T00:06:02.716Z,85.9
2023-04-20T00:07:02.804Z,86
2023-04-20T00:08:02.158Z,86
2023-04-20T00:09:02.638Z,85.9
2023-04-20T00:10:03.983Z,86
2023-04-20T00:11:04.376Z,86
2023-04-20T00:12:03.064Z,86.1
2023-04-20T00:13:04.244Z,86.1
2023-04-20T00:14:03.050Z,86.2
2023-04-20T00:15:03.365Z,86.2
2023-04-20T00:16:03.739Z,86.3
2023-04-20T00:17:04.611Z,86.3
2023-04-20T00:18:03.211Z,86.3
2023-04-20T00:19:04.324Z,86.3
2023-04-20T00:20:03.318Z,86.2
2023-04-20T00:21:03.837Z,86.2
2023-04-20T00:23:03.464Z,86.3
2023-04-20T00:24:03.290Z,86.3
2023-04-20T00:25:05.422Z,86.1
2023-04-20T00:26:04.907Z,86
2023-04-20T00:27:03.295Z,85.9
2023-04-20T00:28:02.946Z,85.8
2023-04-20T00:29:04.405Z,85.7
2023-04-20T00:30:03.798Z,85.6
2023-04-20T00:31:04.371Z,85.5
2023-04-20T00:32:02.976Z,85.5
2023-04-20T00:33:02.442Z,85.6
2023-04-20T00:34:02.959Z,85.7
2023-04-20T00:35:03.698Z,85.7
2023-04-20T00:36:03.348Z,85.7
2023-04-20T00:37:03.611Z,85.8
2023-04-20T00:38:02.335Z,85.8
2023-04-20T00:39:02.807Z,85.9
2023-04-20T00:40:03.253Z,86
2023-04-20T00:41:04.628Z,86
2023-04-20T00:42:02.405Z,85.9
2023-04-20T00:43:02.916Z,85.8
2023-04-20T00:44:04.101Z,85.8
2023-04-20T00:45:05.538Z,85.9
2023-04-20T00:46:04.810Z,86
2023-04-20T00:47:04.015Z,86.2
2023-04-20T00:48:04.449Z,86.1
2023-04-20T00:49:02.156Z,86.1
2023-04-20T00:50:03.711Z,86.1
2023-04-20T00:51:03.333Z,86.1
2023-04-20T00:52:02.841Z,86
2023-04-20T00:53:02.859Z,85.9
2023-04-20T00:54:02.429Z,85.8
2023-04-20T00:55:03.876Z,85.8
2023-04-20T00:56:07.741Z,85.7
2023-04-20T00:57:02.994Z,85.7
2023-04-20T00:58:02.671Z,85.7
2023-04-20T00:59:02.175Z,85.7
2023-04-20T01:00:03.578Z,85.8
2023-04-20T01:01:04.110Z,85.9
2023-04-20T01:02:05.669Z,86.1
2023-04-20T01:03:03.873Z,86
2023-04-20T01:04:03.060Z,86
2023-04-20T01:05:04.991Z,85.9
2023-04-20T01:06:04.102Z,85.9
2023-04-20T01:07:02.731Z,86
2023-04-20T01:08:02.174Z,86
2023-04-20T01:09:04.344Z,85.9
2023-04-20T01:10:02.976Z,85.9
2023-04-20T01:11:04.328Z,85.9
2023-04-20T01:12:02.192Z,86
2023-04-20T01:13:02.650Z,86.2
2023-04-20T01:14:02.192Z,86.3
2023-04-20T01:15:03.644Z,86.5
2023-04-20T01:16:03.072Z,86.5
2023-04-20T01:17:02.981Z,86.6
2023-04-20T01:18:04.088Z,86.6
2023-04-20T01:19:02.830Z,86.6
2023-04-20T01:20:04.871Z,86.6
2023-04-20T01:21:03.477Z,86.4
2023-04-20T01:22:02.506Z,86.3
2023-04-20T01:23:03.111Z,86.2
2023-04-20T01:24:05.955Z,86.2
2023-04-20T01:25:03.637Z,86.2
2023-04-20T01:26:02.627Z,86.2
2023-04-20T01:27:03.073Z,86.2
2023-04-20T01:28:02.588Z,86.1
2023-04-20T01:29:03.140Z,86
2023-04-20T01:30:03.465Z,85.9
2023-04-20T01:31:02.411Z,86
2023-04-20T01:32:02.662Z,86.2
2023-04-20T01:33:03.899Z,86.2
2023-04-20T01:34:02.725Z,86.2
2023-04-20T01:35:04.810Z,86.3
2023-04-20T01:36:03.743Z,86.3
2023-04-20T01:37:02.742Z,86.3
2023-04-20T01:38:03.957Z,86.4
2023-04-20T01:39:02.689Z,86.3
2023-04-20T01:40:03.118Z,86.4
2023-04-20T01:41:02.716Z,86.2
2023-04-20T01:42:02.204Z,86.1
2023-04-20T01:43:02.699Z,85.9
2023-04-20T01:44:06.612Z,85.8
2023-04-20T01:45:03.556Z,85.8
2023-04-20T01:46:03.264Z,85.9
2023-04-20T01:47:03.652Z,85.9
2023-04-20T01:48:04.007Z,85.9
2023-04-20T01:49:02.759Z,85.8
2023-04-20T01:50:03.194Z,85.8
2023-04-20T01:51:03.763Z,85.7
2023-04-20T01:52:04.202Z,85.6
2023-04-20T01:53:02.942Z,85.6
2023-04-20T01:54:02.439Z,85.6
2023-04-20T01:55:03.872Z,85.5
2023-04-20T01:56:03.754Z,85.4
2023-04-20T01:57:03.402Z,85.5
2023-04-20T01:58:02.934Z,85.5
2023-04-20T01:59:02.186Z,85.6
2023-04-20T02:00:05.454Z,85.7
2023-04-20T02:01:03.557Z,85.7
2023-04-20T02:02:02.419Z,85.6
2023-04-20T02:03:04.853Z,85.5
2023-04-20T02:04:02.605Z,85.5
2023-04-20T02:05:05.221Z,85.5
2023-04-20T02:06:02.767Z,85.6
2023-04-20T02:07:02.909Z,85.4
2023-04-20T02:08:02.440Z,85.4
2023-04-20T02:09:02.898Z,85.4
2023-04-20T02:10:03.259Z,85.4
2023-04-20T02:11:03.059Z,85.5
2023-04-20T02:12:02.437Z,85.6
2023-04-20T02:13:04.499Z,85.6
2023-04-20T02:14:02.368Z,85.6
2023-04-20T02:15:03.965Z,85.6
2023-04-20T02:16:03.374Z,85.6
2023-04-20T02:17:03.101Z,85.7
2023-04-20T02:18:02.436Z,85.6
2023-04-20T02:19:04.499Z,85.6
2023-04-20T02:20:03.235Z,85.6
2023-04-20T02:21:03.698Z,85.5
2023-04-20T02:22:02.574Z,85.5
2023-04-20T02:23:03.158Z,85.4
2023-04-20T02:24:02.790Z,85.4
2023-04-20T02:25:05.493Z,85.5
2023-04-20T02:26:03.834Z,85.6
2023-04-20T02:27:02.681Z,85.7
2023-04-20T02:28:02.831Z,85.8
2023-04-20T02:29:02.278Z,85.8
2023-04-20T02:30:03.684Z,86
2023-04-20T02:31:02.392Z,86.1
2023-04-20T02:32:04.557Z,86.1
2023-04-20T02:33:04.117Z,86.1
2023-04-20T02:34:02.739Z,86
2023-04-20T02:35:03.129Z,85.8
2023-04-20T02:36:03.456Z,85.8
2023-04-20T02:37:02.384Z,85.7
2023-04-20T02:38:04.466Z,85.7
2023-04-20T02:39:02.177Z,85.5
2023-04-20T02:40:03.631Z,85.5
2023-04-20T02:41:03.884Z,85.5
2023-04-20T02:42:04.414Z,85.6
2023-04-20T02:43:02.196Z,85.6
2023-04-20T02:44:02.689Z,85.6
2023-04-20T02:45:03.050Z,85.6
2023-04-20T02:46:03.927Z,85.7
2023-04-20T02:47:04.846Z,85.8
2023-04-20T02:48:04.078Z,85.8
2023-04-20T02:49:04.453Z,85.8
2023-04-20T02:50:03.093Z,85.9
2023-04-20T02:51:02.987Z,86
2023-04-20T02:52:02.171Z,85.9
2023-04-20T02:53:04.346Z,86.1
2023-04-20T02:54:03.904Z,86.2
2023-04-20T02:55:03.761Z,86.3
2023-04-20T02:56:03.738Z,86.4
2023-04-20T02:57:03.373Z,86.4
2023-04-20T02:58:02.681Z,86.5
2023-04-20T02:59:02.927Z,86.4
2023-04-20T03:00:03.185Z,86.4
2023-04-20T03:01:04.745Z,86.4
2023-04-20T03:02:03.552Z,86.4
2023-04-20T03:03:03.992Z,86.3
2023-04-20T03:04:03.554Z,86.2
2023-04-20T03:05:02.889Z,86.2
2023-04-20T03:06:03.484Z,86.1
2023-04-20T03:07:02.310Z,86.1
2023-04-20T03:08:02.747Z,86
2023-04-20T03:09:02.344Z,85.9
2023-04-20T03:10:03.881Z,85.9
2023-04-20T03:11:04.291Z,85.9
2023-04-20T03:12:03.169Z,85.9
2023-04-20T03:13:02.350Z,85.9
2023-04-20T03:14:02.823Z,86
2023-04-20T03:15:03.150Z,86
2023-04-20T03:16:03.291Z,86
2023-04-20T03:17:02.893Z,86
2023-04-20T03:18:02.899Z,86
2023-04-20T03:19:02.270Z,86
2023-04-20T03:20:03.531Z,86.1
2023-04-20T03:21:04.176Z,86
2023-04-20T03:22:02.755Z,86
2023-04-20T03:23:02.293Z,86
2023-04-20T03:24:02.744Z,86.1
2023-04-20T03:25:03.071Z,86.3
2023-04-20T03:26:02.739Z,86.5
2023-04-20T03:27:02.271Z,86.6
2023-04-20T03:28:04.362Z,86.6
2023-04-20T03:29:02.319Z,86.6
2023-04-20T03:30:03.563Z,86.6
2023-04-20T03:31:03.079Z,86.7
2023-04-20T03:32:04.708Z,86.8
2023-04-20T03:33:04.063Z,86.9
2023-04-20T03:34:02.810Z,86.9
2023-04-20T03:35:03.099Z,86.9
2023-04-20T03:36:03.691Z,87
2023-04-20T03:37:03.036Z,87
2023-04-20T03:38:04.763Z,87
2023-04-20T03:39:02.347Z,87
2023-04-20T03:40:03.519Z,87.1
2023-04-20T03:41:02.434Z,87.1
2023-04-20T03:42:02.903Z,87.2
2023-04-20T03:43:04.067Z,87.2
2023-04-20T03:44:02.821Z,87.1
2023-04-20T03:45:03.205Z,87.2
2023-04-20T03:46:03.076Z,87.2
2023-04-20T03:47:02.337Z,87.1
2023-04-20T03:48:04.564Z,87.1
2023-04-20T03:49:02.330Z,87.1
2023-04-20T03:50:03.627Z,87.1
2023-04-20T03:51:02.416Z,87
2023-04-20T03:52:02.822Z,87
2023-04-20T03:53:02.273Z,86.9
2023-04-20T03:54:02.874Z,86.9
2023-04-20T03:55:03.168Z,86.8
2023-04-20T03:56:02.888Z,86.7
2023-04-20T03:57:02.350Z,86.7
2023-04-20T03:58:04.494Z,86.7
2023-04-20T03:59:04.081Z,86.6
2023-04-20T04:00:05.366Z,86.5
2023-04-20T04:01:02.868Z,86.5
2023-04-20T04:02:03.309Z,86.4
2023-04-20T04:03:02.779Z,86.3
2023-04-20T04:04:03.222Z,86.1
2023-04-20T04:05:03.671Z,86.1
2023-04-20T04:06:04.988Z,86.2
2023-04-20T04:07:02.652Z,86.2
2023-04-20T04:08:03.140Z,86.2
2023-04-20T04:09:02.659Z,86.2
2023-04-20T04:11:03.432Z,85.9
2023-04-20T04:12:03.832Z,85.8
2023-04-20T04:13:02.635Z,85.8
2023-04-20T04:14:03.137Z,85.7
2023-04-20T04:15:03.462Z,85.7
2023-04-20T04:16:03.933Z,85.7
2023-04-20T04:17:04.348Z,85.6
2023-04-20T04:18:03.197Z,85.5
2023-04-20T04:19:02.549Z,85.5
2023-04-20T04:20:03.279Z,85.7
2023-04-20T04:21:03.231Z,86
2023-04-20T04:22:04.269Z,86.2
2023-04-20T04:23:03.052Z,86.3
2023-04-20T04:24:05.431Z,86.5
2023-04-20T04:25:03.665Z,86.6
2023-04-20T04:26:04.068Z,86.6
2023-04-20T04:27:04.422Z,86.5
2023-04-20T04:28:02.253Z,86.4
2023-04-20T04:29:02.711Z,86.3
2023-04-20T04:30:02.959Z,86.2
2023-04-20T04:31:03.622Z,86.1
2023-04-20T04:32:03.930Z,86
2023-04-20T04:33:02.795Z,86
2023-04-20T04:34:02.255Z,86.2
2023-04-20T04:35:03.589Z,86.2
2023-04-20T04:36:02.326Z,86.3
2023-04-20T04:37:04.421Z,86.2
2023-04-20T04:38:02.249Z,86.1
2023-04-20T04:39:02.716Z,86.1
2023-04-20T04:40:04.387Z,86.2
2023-04-20T04:41:03.011Z,86.3
2023-04-20T04:42:04.257Z,86.4
2023-04-20T04:43:02.764Z,86.4
2023-04-20T04:44:02.176Z,86.4
2023-04-20T04:45:03.442Z,86.5
2023-04-20T04:46:02.391Z,86.5
2023-04-20T04:47:02.701Z,86.5
2023-04-20T04:48:04.394Z,86.5
2023-04-20T04:49:02.657Z,86.5
2023-04-20T04:50:03.065Z,86.4
2023-04-20T04:51:02.918Z,86.3
2023-04-20T04:52:03.898Z,86.4
2023-04-20T04:53:02.687Z,86.6
2023-04-20T04:54:02.905Z,86.7
2023-04-20T04:55:03.612Z,87.1
2023-04-20T04:56:02.347Z,87.3
2023-04-20T04:57:02.847Z,87.3
2023-04-20T04:58:02.452Z,87.2
2023-04-20T04:59:02.898Z,87.2
2023-04-20T05:00:04.046Z,87.2
2023-04-20T05:01:03.317Z,87.2
2023-04-20T08:34:36.589Z,65.5
2023-04-20T08:35:03.699Z,67.8
2023-04-20T08:36:02.988Z,65.8
2023-04-20T08:37:03.062Z,66.6
2023-04-20T08:38:02.315Z,66.5
2023-04-20T08:39:03.462Z,66.5
2023-04-20T08:40:03.376Z,65
2023-04-20T08:41:02.208Z,65.8
2023-04-20T08:42:02.706Z,66.4
2023-04-20T08:43:02.222Z,66.4
2023-04-20T08:44:06.804Z,67.8
2023-04-20T08:45:03.768Z,67.8
2023-04-20T08:46:03.636Z,66.4
2023-04-20T08:47:03.960Z,65.9
2023-04-20T08:48:03.520Z,68.5
2023-04-20T08:49:05.334Z,67.2
2023-04-20T08:50:03.565Z,67.6
2023-04-20T08:51:03.226Z,65.8
2023-04-20T08:52:03.630Z,65.4
2023-04-20T08:53:02.462Z,67.1
2023-04-20T08:54:04.799Z,66.6
2023-04-20T08:55:03.817Z,65.2
2023-04-20T08:56:04.706Z,66.1
2023-04-20T08:57:03.057Z,65.1
2023-04-20T08:58:04.386Z,66.2
2023-04-20T08:59:03.269Z,65.7
2023-04-20T09:00:03.614Z,65.2
2023-04-20T09:01:03.076Z,65.1
2023-04-20T09:02:03.059Z,64
2023-04-20T09:04:06.251Z,64.9
2023-04-20T09:05:03.563Z,64.8
2023-04-20T09:06:03.748Z,63.8
2023-04-20T09:07:02.566Z,65.1
2023-04-20T09:08:03.041Z,65.1
2023-04-20T09:09:02.477Z,64.3
2023-04-20T09:10:03.725Z,66.6
2023-04-20T09:11:02.520Z,65.4
2023-04-20T09:12:02.962Z,65
2023-04-20T09:13:02.463Z,62.9
2023-04-20T09:14:06.541Z,63.3
2023-04-20T09:15:03.659Z,64.9
2023-04-20T09:16:02.699Z,66.8
2023-04-20T09:17:03.281Z,64.7
2023-04-20T09:18:02.310Z,65.2
2023-04-20T09:19:06.841Z,64.3
2023-04-20T09:20:03.892Z,64
2023-04-20T09:21:03.711Z,65.2
2023-04-20T09:22:02.796Z,65.2
2023-04-20T09:23:02.693Z,67
2023-04-20T09:24:03.722Z,67.1
2023-04-20T09:25:05.657Z,66.1
2023-04-20T09:26:03.906Z,63.9
2023-04-20T09:27:03.474Z,64.3
2023-04-20T09:28:03.850Z,65.8
2023-04-20T09:29:04.683Z,64.3
2023-04-20T09:30:03.308Z,63.3
2023-04-20T09:31:04.483Z,65.7
2023-04-20T09:32:04.813Z,65.3
2023-04-20T09:33:02.327Z,65.7
2023-04-20T09:34:04.424Z,65.6
2023-04-20T09:35:05.371Z,66.6
2023-04-20T09:36:03.469Z,66.5
2023-04-20T09:37:03.168Z,65.4
2023-04-20T09:38:02.519Z,64.5
2023-04-20T09:39:03.062Z,65.2
2023-04-20T09:40:04.939Z,67.2
2023-04-20T09:41:03.852Z,67.5
2023-04-20T09:42:02.806Z,66.9
2023-04-20T09:43:02.129Z,66.5
2023-04-20T09:44:03.722Z,67.3
2023-04-20T09:45:03.016Z,68.7
2023-04-20T09:46:04.619Z,69.2
2023-04-20T09:47:02.233Z,68.6
2023-04-20T09:48:02.751Z,68.3
2023-04-20T09:49:02.218Z,69.2
2023-04-20T09:50:19.345Z,68.1
2023-04-20T09:51:02.655Z,69.3
2023-04-20T09:52:03.278Z,67.1
2023-04-20T09:53:02.456Z,68.4
2023-04-20T09:54:04.580Z,67.9
2023-04-20T09:55:03.876Z,67.7
2023-04-20T09:56:03.364Z,68.8
2023-04-20T09:57:03.164Z,68.7
2023-04-20T09:58:04.281Z,68.5
2023-04-20T09:59:03.073Z,68.3
2023-04-20T10:00:03.510Z,67.8
2023-04-20T10:01:04.226Z,68.8
2023-04-20T10:02:02.838Z,69
2023-04-20T10:03:02.532Z,70
2023-04-20T10:04:04.872Z,68.5
2023-04-20T10:05:03.830Z,67.8
2023-04-20T10:06:03.444Z,67.7
2023-04-20T10:07:04.128Z,66.4
2023-04-20T10:08:04.499Z,67.8
2023-04-20T10:09:02.375Z,66.9
2023-04-20T10:10:03.603Z,67
2023-04-20T10:11:02.603Z,68
2023-04-20T10:12:02.827Z,67.5
2023-04-20T10:13:02.346Z,67.1
2023-04-20T10:14:06.323Z,68.6
2023-04-20T10:15:03.174Z,68.1
2023-04-20T10:16:03.652Z,67.8
2023-04-20T10:17:02.603Z,66.3
2023-04-20T10:18:03.545Z,66.1
2023-04-20T10:19:02.773Z,65.8
2023-04-20T10:20:03.623Z,67.8
2023-04-20T10:21:02.508Z,66.4
2023-04-20T10:22:02.971Z,66
2023-04-20T10:23:02.424Z,67
2023-04-20T10:24:04.478Z,66.8
2023-04-20T10:25:05.333Z,66
2023-04-20T10:26:03.257Z,66.7
2023-04-20T10:27:02.994Z,66.9
2023-04-20T10:28:02.500Z,66.1
2023-04-20T10:29:02.976Z,66.1
2023-04-20T10:30:05.047Z,65
2023-04-20T10:31:02.593Z,65.4
2023-04-20T10:32:03.093Z,65.4
2023-04-20T10:33:02.299Z,63.5
2023-04-20T10:34:04.712Z,64.4
2023-04-20T10:35:03.844Z,65.4
2023-04-20T10:36:03.464Z,65.8
2023-04-20T10:37:04.764Z,66.5
2023-04-20T10:38:04.157Z,65.5
2023-04-20T10:39:05.369Z,64.2
2023-04-20T10:40:05.261Z,63.8
2023-04-20T10:41:03.150Z,63.6
2023-04-20T10:42:02.557Z,65.6
2023-04-20T10:43:03.033Z,64.9
2023-04-20T10:44:06.255Z,66
2023-04-20T10:45:03.063Z,64.5
2023-04-20T10:46:02.866Z,64.4
2023-04-20T10:47:02.292Z,64
2023-04-20T10:48:02.787Z,64.6
2023-04-20T10:49:02.302Z,64.6
2023-04-20T10:50:03.805Z,64.3
2023-04-20T10:51:02.581Z,65.1
2023-04-20T10:52:02.823Z,65.3
2023-04-20T10:53:02.238Z,65.4
2023-04-20T10:54:05.187Z,64.7
2023-04-20T10:55:03.091Z,65.5
2023-04-20T10:56:02.924Z,65.8
2023-04-20T10:57:02.346Z,65
2023-04-20T10:58:02.821Z,65.9
2023-04-20T10:59:02.392Z,66.3
2023-04-20T11:00:03.885Z,66.2
2023-04-20T11:01:05.278Z,67.7
2023-04-20T11:02:03.328Z,66.9
2023-04-20T11:03:03.596Z,66.7
2023-04-20T11:04:04.477Z,66.2
2023-04-20T11:05:03.488Z,66.8
2023-04-20T11:06:03.206Z,65.8
2023-04-20T11:07:02.408Z,67.8
2023-04-20T11:08:04.600Z,66.8
2023-04-20T11:09:05.124Z,66.4
2023-04-20T11:10:03.529Z,66.8
2023-04-20T11:11:02.882Z,66.7
2023-04-20T11:12:03.753Z,67.1
2023-04-20T11:13:02.852Z,67.4
2023-04-20T11:14:04.284Z,67.8
2023-04-20T11:15:03.277Z,67.5
2023-04-20T11:16:03.139Z,67.1
2023-04-20T11:17:02.622Z,68.3
2023-04-20T11:18:02.955Z,68.1
2023-04-20T11:19:02.367Z,67.4
2023-04-20T11:20:03.724Z,67.8
2023-04-20T11:21:02.657Z,68.4
2023-04-20T11:22:02.988Z,68.3
2023-04-20T11:23:02.353Z,68.2
2023-04-20T11:24:04.835Z,68.5
2023-04-20T11:25:04.031Z,68.1
2023-04-20T11:26:03.096Z,69.2
2023-04-20T11:27:03.375Z,69.3
2023-04-20T11:28:02.888Z,68.7
2023-04-20T12:32:10.845Z,70.5
2023-04-20T12:33:03.805Z,67.6
2023-04-20T12:34:04.645Z,68.2
2023-04-20T12:35:05.313Z,67.9
2023-04-20T12:36:02.843Z,68.3
2023-04-20T12:37:03.070Z,68.3
2023-04-20T12:38:02.582Z,67.5
2023-04-20T12:39:04.118Z,67.6
2023-04-20T12:40:03.752Z,67.9
2023-04-20T12:41:02.683Z,66.8
2023-04-20T12:42:03.019Z,67.2
2023-04-20T12:43:02.536Z,68
2023-04-20T12:44:07.088Z,67.7
2023-04-20T12:45:05.360Z,67.6
2023-04-20T12:46:02.686Z,66.9
2023-04-20T12:47:03.170Z,66.1
2023-04-20T12:48:02.586Z,66.5
2023-04-20T12:49:03.148Z,67.2
2023-04-20T12:50:03.695Z,66.7
2023-04-20T12:51:02.737Z,67
2023-04-20T12:52:03.268Z,67.5
2023-04-20T12:53:02.409Z,67.3
2023-04-20T12:54:04.926Z,66.2
2023-04-20T12:55:03.703Z,67
2023-04-20T12:56:02.850Z,66.2
2023-04-20T12:57:04.774Z,66.8
2023-04-20T12:58:02.497Z,67.5
2023-04-20T12:59:03.039Z,67.2
2023-04-20T13:00:03.420Z,66.6
2023-04-20T13:01:03.100Z,66.7
2023-04-20T13:02:03.747Z,64.5
2023-04-20T13:03:05.165Z,64.2
2023-04-20T13:04:03.465Z,65.2
2023-04-20T13:05:05.067Z,64.9
2023-04-20T13:06:04.588Z,66.3
2023-04-20T13:07:04.751Z,66.8
2023-04-20T13:08:02.279Z,65.5
2023-04-20T13:09:02.850Z,64.8
2023-04-20T13:10:03.109Z,66.1
2023-04-20T13:11:03.021Z,65.2
2023-04-20T13:12:02.369Z,66
2023-04-20T13:13:02.833Z,67.1
2023-04-20T13:14:02.395Z,67.5
2023-04-20T13:15:03.930Z,66
2023-04-20T13:16:03.365Z,67.2
2023-04-20T13:17:04.709Z,67.7
2023-04-20T13:18:02.548Z,66
2023-04-20T13:19:02.985Z,66.7
2023-04-20T13:20:03.410Z,67.2
2023-04-20T13:21:03.074Z,67.7
2023-04-20T13:22:02.520Z,66
2023-04-20T13:23:03.046Z,66.8
2023-04-20T13:24:03.814Z,66.4
2023-04-20T13:25:06.141Z,66.6
2023-04-20T13:26:03.509Z,65.7
2023-04-20T13:27:03.033Z,66.6
2023-04-20T13:28:02.502Z,67.1
2023-04-20T13:29:05.533Z,68.7
2023-04-20T13:30:03.764Z,68.1
2023-04-20T13:31:02.318Z,67.1
2023-04-20T13:32:02.947Z,67.1
2023-04-20T13:33:02.402Z,68.2
2023-04-20T13:34:03.182Z,68
2023-04-20T13:35:03.250Z,67.2
2023-04-20T13:36:03.676Z,67
2023-04-20T13:37:02.701Z,66.7
2023-04-20T13:38:04.773Z,66.9
2023-04-20T13:39:02.336Z,67.7
2023-04-20T13:40:03.740Z,68
2023-04-20T13:41:02.366Z,69.2
2023-04-20T13:42:02.962Z,69.6
2023-04-20T13:43:02.415Z,69.1
2023-04-20T13:44:04.423Z,69.4
2023-04-20T13:45:03.742Z,69
2023-04-20T13:46:03.256Z,67.4
2023-04-20T13:47:02.992Z,68.4
2023-04-20T13:48:04.014Z,67.4
2023-04-20T13:49:02.714Z,68.3
2023-04-20T13:50:03.170Z,68
2023-04-20T13:51:03.210Z,67.7
2023-04-20T13:52:02.355Z,67.4
2023-04-20T13:53:02.814Z,67.8
2023-04-20T13:54:03.816Z,68.4
2023-04-20T13:55:04.123Z,68.1
2023-04-20T13:56:03.470Z,68.8
2023-04-20T13:57:03.144Z,68.8
2023-04-20T13:58:02.589Z,69
2023-04-20T13:59:03.139Z,69.2
2023-04-20T14:00:03.679Z,68.2
2023-04-20T14:01:03.248Z,68.9
2023-04-20T14:02:02.670Z,68.8
2023-04-20T14:03:03.291Z,68.8
2023-04-20T14:04:03.670Z,70.1
2023-04-20T14:05:03.937Z,70
2023-04-20T14:06:04.931Z,70.2
2023-04-20T14:07:02.864Z,69.8
2023-04-20T14:08:03.174Z,70.2
2023-04-20T14:09:03.360Z,70.7
2023-04-20T14:10:03.187Z,71
2023-04-20T14:11:03.100Z,71
2023-04-20T14:12:04.096Z,71.5
2023-04-20T14:13:02.901Z,70.9
2023-04-20T14:14:04.016Z,70.3
2023-04-20T14:15:05.844Z,69.7
2023-04-20T14:16:03.289Z,70.7
2023-04-20T14:17:02.368Z,70.8
2023-04-20T14:18:02.965Z,71.2
2023-04-20T14:19:02.418Z,71.5
2023-04-20T14:20:06.223Z,72.6
2023-04-20T14:21:02.842Z,72.9
2023-04-20T14:22:03.179Z,72.9
2023-04-20T14:23:02.519Z,73.3
2023-04-20T14:24:04.890Z,73.7
2023-04-20T14:25:03.103Z,73.1
2023-04-20T14:26:04.013Z,73.4
2023-04-20T14:27:03.422Z,73.1
2023-04-20T14:28:03.093Z,73.5
2023-04-20T14:29:03.803Z,73.3
2023-04-20T14:30:03.463Z,73
2023-04-20T14:31:05.752Z,73.6
2023-04-20T14:32:02.911Z,73.1
2023-04-20T14:33:02.262Z,73.8
2023-04-20T14:34:03.539Z,73.8
2023-04-20T14:35:05.542Z,73.3
2023-04-20T14:36:02.555Z,73.4
2023-04-20T14:37:02.903Z,73.4
2023-04-20T14:38:03.999Z,73
2023-04-20T14:39:02.843Z,73.3
2023-04-20T14:40:03.171Z,73.9
2023-04-20T14:41:04.718Z,73.3
2023-04-20T14:42:02.419Z,73.3
2023-04-20T14:43:02.894Z,73.1
2023-04-20T14:44:02.414Z,73.1
2023-04-20T14:45:03.040Z,72.9
2023-04-20T14:46:04.603Z,73
2023-04-20T14:47:04.026Z,73.2
2023-04-20T14:48:02.751Z,73
2023-04-20T14:49:04.864Z,73.6
2023-04-20T14:50:03.825Z,73.4
2023-04-20T14:51:02.742Z,73.8
2023-04-20T14:52:03.054Z,73.5
2023-04-20T14:53:02.579Z,73.7
2023-04-20T14:54:06.466Z,73.8
2023-04-20T14:55:03.455Z,74
2023-04-20T14:56:03.143Z,73.5
2023-04-20T14:57:02.767Z,73.4
2023-04-20T14:58:03.132Z,73.6
2023-04-20T14:59:04.504Z,73.3
2023-04-20T15:00:03.256Z,73.5
2023-04-20T15:01:03.403Z,73.8
2023-04-20T15:02:03.516Z,73.8
2023-04-20T15:03:04.073Z,73.5
2023-04-20T15:04:06.846Z,73.3
2023-04-20T15:05:04.745Z,73.8
2023-04-20T15:06:04.036Z,73.5
2023-04-20T15:07:02.712Z,73.5
2023-04-20T15:08:03.829Z,74.1
2023-04-20T15:09:02.699Z,73.9
2023-04-20T15:10:02.982Z,73.7
2023-04-20T15:11:02.928Z,74.3
2023-04-20T15:12:03.847Z,74.5
2023-04-20T15:13:04.308Z,74.5
2023-04-20T15:14:06.619Z,74.1
2023-04-20T15:15:04.040Z,74.4
2023-04-20T15:16:02.614Z,75.1
2023-04-20T15:17:03.077Z,74.7
2023-04-20T15:18:02.601Z,74.2
2023-04-20T15:19:03.099Z,74.8
2023-04-20T15:20:03.558Z,75
2023-04-20T15:21:04.822Z,74.6
2023-04-20T15:22:02.679Z,74.7
2023-04-20T15:23:03.035Z,74.3
2023-04-20T15:24:04.507Z,74.2
2023-04-20T15:25:03.378Z,74.8
2023-04-20T15:26:04.932Z,75
2023-04-20T15:27:04.458Z,74.4
2023-04-20T15:28:03.113Z,74.8
2023-04-20T15:29:04.699Z,75
2023-04-20T15:30:03.841Z,74.9
2023-04-20T15:31:03.476Z,74.9
2023-04-20T15:32:02.183Z,74.5
2023-04-20T15:33:04.350Z,74.7
2023-04-20T15:34:05.489Z,74.7
2023-04-20T15:35:03.597Z,74.1
2023-04-20T15:36:02.268Z,74.2
2023-04-20T15:37:04.714Z,74.3
2023-04-20T15:38:02.223Z,74.1
2023-04-20T15:39:03.101Z,74.4
2023-04-20T15:40:05.041Z,74.5
2023-04-20T15:41:02.709Z,74.4
2023-04-20T15:42:02.910Z,73.6
2023-04-20T15:43:02.412Z,74.3
2023-04-20T15:44:03.082Z,73.7
2023-04-20T15:45:03.426Z,74.2
2023-04-20T15:46:02.959Z,73.7
2023-04-20T15:47:03.985Z,74
2023-04-20T15:48:02.855Z,73.4
2023-04-20T15:49:02.230Z,73.7
2023-04-20T15:50:05.418Z,74
2023-04-20T15:51:02.539Z,74.1
2023-04-20T15:52:02.807Z,73.8
2023-04-20T15:53:03.952Z,74.5
2023-04-20T15:54:05.378Z,73.6
2023-04-20T15:55:03.314Z,74
2023-04-20T15:56:03.237Z,73.3
2023-04-20T15:57:02.571Z,73.8
2023-04-20T15:58:03.059Z,74.4
2023-04-20T15:59:02.507Z,74.5
2023-04-20T16:00:03.685Z,74.3
2023-04-20T16:01:04.532Z,74.3
2023-04-20T16:02:03.092Z,74.6
2023-04-20T16:03:04.269Z,74.9
2023-04-20T16:04:04.999Z,75.1
2023-04-20T16:05:04.130Z,74.7
2023-04-20T16:06:02.723Z,75.1
2023-04-20T16:07:03.216Z,75.1
2023-04-20T16:08:02.545Z,75.2
2023-04-20T16:09:03.039Z,75.4
2023-04-20T16:10:04.954Z,75.6
2023-04-20T16:11:03.510Z,75.9
2023-04-20T16:12:04.489Z,76
2023-04-20T16:13:03.109Z,75.5
2023-04-20T16:14:04.089Z,75.7
2023-04-20T16:15:02.832Z,76.1
2023-04-20T16:16:02.912Z,76.1
2023-04-20T16:17:02.138Z,75.7
2023-04-20T16:18:02.809Z,75.7
2023-04-20T16:19:05.454Z,75.9
2023-04-20T16:20:05.203Z,76.3
2023-04-20T16:21:02.493Z,76.8
2023-04-20T16:22:04.786Z,76.4
2023-04-20T16:23:02.416Z,76.3
2023-04-20T16:24:04.692Z,76.6
2023-04-20T16:25:03.627Z,76.6
2023-04-20T16:26:03.171Z,76.9
2023-04-20T16:27:02.955Z,76.8
2023-04-20T16:28:02.476Z,76.6
2023-04-20T16:29:03.022Z,77
2023-04-20T16:30:03.504Z,77.1
2023-04-20T16:31:02.583Z,77.4
2023-04-20T16:32:02.825Z,77.2
2023-04-20T16:33:02.356Z,77.2
2023-04-20T16:34:04.409Z,77.2
2023-04-20T16:35:03.088Z,77.2
2023-04-20T16:36:03.995Z,77.3
2023-04-20T16:37:03.229Z,77.7
2023-04-20T16:38:03.078Z,77.6
2023-04-20T16:39:03.902Z,77.7
2023-04-20T16:40:03.859Z,77.4
2023-04-20T16:41:02.663Z,77.4
2023-04-20T16:42:03.144Z,77.3
2023-04-20T16:43:02.672Z,77.3
2023-04-20T16:44:04.824Z,77.1
2023-04-20T16:45:03.873Z,77.4
2023-04-20T16:46:03.230Z,77.6
2023-04-20T16:47:02.329Z,77.6
2023-04-20T16:48:04.543Z,77.6
2023-04-20T16:49:02.334Z,77.5
2023-04-20T16:50:05.083Z,77.6
2023-04-20T16:51:02.918Z,77.5
2023-04-20T16:52:03.450Z,77.8
2023-04-20T16:53:02.402Z,77.8
2023-04-20T16:54:04.788Z,77.9
2023-04-20T16:55:05.335Z,77.9
2023-04-20T16:56:03.182Z,78.1
2023-04-20T16:57:02.272Z,78.4
2023-04-20T16:58:02.734Z,78.3
2023-04-20T16:59:02.191Z,78.5
2023-04-20T17:00:03.565Z,78.4
2023-04-20T18:19:04.416Z,82.2
2023-04-20T18:20:03.107Z,82.2
2023-04-20T18:21:03.662Z,82.2
2023-04-20T18:22:02.410Z,82.3
2023-04-20T18:23:02.879Z,82.4
2023-04-20T18:24:04.297Z,82.4
2023-04-20T18:25:04.175Z,82.4
2023-04-20T18:26:02.824Z,82.5
2023-04-20T18:27:03.018Z,82.5
2023-04-20T18:28:02.451Z,82.7
2023-04-20T18:29:03.142Z,82.7
2023-04-20T18:30:03.403Z,82.8
2023-04-20T18:31:03.461Z,82.8
2023-04-20T18:32:02.785Z,82.8
2023-04-20T18:33:02.247Z,82.8
2023-04-20T18:34:03.592Z,82.9
2023-04-20T18:35:03.319Z,83.1
2023-04-20T18:36:03.682Z,83.2
2023-04-20T18:37:02.318Z,83.3
2023-04-20T18:38:02.848Z,83.3
2023-04-20T18:39:02.303Z,83.3
2023-04-20T18:40:03.586Z,83.4
2023-04-20T18:41:02.419Z,83.5
2023-04-20T18:42:04.628Z,83.5
2023-04-20T18:43:02.451Z,83.7
2023-04-20T18:44:04.879Z,83.7
2023-04-20T18:45:05.627Z,83.8
2023-04-20T18:46:03.994Z,83.8
2023-04-20T18:47:02.817Z,83.8
2023-04-20T18:48:04.956Z,83.8
2023-04-20T18:49:03.561Z,83.7
2023-04-20T18:50:04.110Z,83.8
2023-04-20T18:51:05.792Z,83.8
2023-04-20T18:52:04.342Z,83.8
2023-04-20T18:53:03.535Z,84
2023-04-20T18:55:04.204Z,84.1
2023-04-20T18:56:03.653Z,84.2
2023-04-20T18:57:02.626Z,84.3
2023-04-20T18:58:02.978Z,84.4
2023-04-20T18:59:04.575Z,84.5
2023-04-20T19:00:04.006Z,84.4
2023-04-20T19:01:03.891Z,84.4
2023-04-20T19:02:05.259Z,84.4
2023-04-20T19:03:03.664Z,84.4
2023-04-20T19:04:05.278Z,84.4
2023-04-20T19:05:03.206Z,84.4
2023-04-20T19:06:04.039Z,84.4
2023-04-20T19:07:03.655Z,84.4
2023-04-20T19:08:02.673Z,84.4
2023-04-20T19:09:07.276Z,84.6
2023-04-20T19:10:03.665Z,84.5
2023-04-20T19:11:02.924Z,84.6
2023-04-20T19:12:03.146Z,84.7
2023-04-20T19:13:02.733Z,84.6
2023-04-20T19:14:02.276Z,84.6
2023-04-20T19:15:03.509Z,84.6
2023-04-20T19:16:02.766Z,84.7
2023-04-20T19:17:03.157Z,84.7
2023-04-20T19:18:02.398Z,84.7
2023-04-20T19:19:02.884Z,84.5
2023-04-20T19:20:03.319Z,84.5
2023-04-20T19:21:02.952Z,84.6